Time;durP1;ratioP1;P1;durP2;ratioP2;P2;SDS_P1;SDS_P2;PMS_P1;PMS_P2;Temp;Humidity;BMP_temperature;BMP_pressure;BME280_temperature;BME280_humidity;BME280_pressure;Samples;Min_cycle;Max_cycle;Signal;HPM_P1;HPM_P2
2022/03/24 00:01:57;;;;;;;55.92;29.92;;;;;;;4.66;44.67;101424.88;1809994;79;26078;-76
2022/03/24 00:04:23;;;;;;;56.23;31.45;;;;;;;4.59;44.87;101421.00;1810066;79;25630;-74
2022/03/24 00:06:49;;;;;;;50.65;30.40;;;;;;;4.52;44.84;101417.67;1821529;78;27519;-73
2022/03/24 00:09:16;;;;;;;60.83;30.85;;;;;;;4.43;45.18;101415.91;1809932;79;25662;-73
2022/03/24 00:11:42;;;;;;;56.50;31.35;;;;;;;4.37;45.50;101416.85;1810007;79;25520;-74
2022/03/24 00:14:09;;;;;;;54.75;29.98;;;;;;;4.34;45.65;101417.86;1810021;79;25586;-74
2022/03/24 00:16:35;;;;;;;54.70;29.87;;;;;;;4.27;46.02;101420.68;1810029;79;25568;-73
2022/03/24 00:19:01;;;;;;;57.23;31.80;;;;;;;4.22;45.92;101420.58;1809976;79;28120;-74
2022/03/24 00:21:28;;;;;;;58.60;31.15;;;;;;;4.18;46.28;101416.77;1809916;78;25694;-74
2022/03/24 00:23:54;;;;;;;52.65;28.90;;;;;;;4.10;45.88;101415.27;1809946;79;25460;-74
2022/03/24 00:26:20;;;;;;;49.60;27.62;;;;;;;4.03;46.28;101416.73;1789591;78;25572;-73
2022/03/24 00:28:46;;;;;;;51.05;27.52;;;;;;;3.98;46.61;101421.99;1809977;79;25649;-74
2022/03/24 00:31:16;;;;;;;48.30;27.95;;;;;;;3.93;46.71;101424.06;1821527;78;28061;-74
2022/03/24 00:33:43;;;;;;;48.48;26.37;;;;;;;3.89;46.58;101418.88;1810037;79;25563;-74
2022/03/24 00:36:11;;;;;;;41.53;25.88;;;;;;;3.84;46.60;101417.44;1789141;80;25519;-74
2022/03/24 00:38:38;;;;;;;49.98;28.57;;;;;;;3.81;46.87;101415.75;1821443;78;25958;-74
2022/03/24 00:41:05;;;;;;;42.50;25.95;;;;;;;3.76;47.17;101418.33;1810019;79;25611;-74
2022/03/24 00:43:32;;;;;;;49.08;28.07;;;;;;;3.68;47.16;101412.30;1809963;79;27473;-74
2022/03/24 00:45:59;;;;;;;48.13;27.13;;;;;;;3.63;47.25;101417.54;1809917;79;25606;-74
2022/03/24 00:48:26;;;;;;;45.92;27.25;;;;;;;3.58;47.53;101418.77;1789116;80;25393;-74
2022/03/24 00:50:53;;;;;;;53.42;26.50;;;;;;;3.52;47.70;101418.35;1803706;79;25659;-74
2022/03/24 00:53:19;;;;;;;48.70;25.77;;;;;;;3.47;47.67;101427.06;1789178;80;25521;-74
2022/03/24 00:55:46;;;;;;;49.75;27.48;;;;;;;3.42;47.70;101420.80;1806623;79;28032;-74
2022/03/24 00:58:13;;;;;;;44.75;26.10;;;;;;;3.36;47.52;101419.88;1827461;78;25646;-74
2022/03/24 01:00:41;;;;;;;50.28;27.50;;;;;;;3.30;47.79;101420.30;1806844;79;25382;-74
2022/03/24 01:03:10;;;;;;;47.53;26.27;;;;;;;3.27;47.97;101426.61;1794856;80;25554;-75
2022/03/24 01:05:37;;;;;;;44.45;24.35;;;;;;;3.19;48.36;101411.74;1827561;78;25539;-74
2022/03/24 01:08:10;;;;;;;50.98;25.05;;;;;;;3.12;48.49;101411.05;1806840;79;27461;-75
2022/03/24 01:10:37;;;;;;;44.60;24.82;;;;;;;3.04;48.54;101412.72;1827467;78;25514;-75
2022/03/24 01:13:04;;;;;;;47.67;26.60;;;;;;;2.96;48.70;101404.50;1827493;78;25585;-73
2022/03/24 01:15:31;;;;;;;78.05;70.05;;;;;;;2.89;48.92;101409.14;1794932;80;25631;-73
2022/03/24 01:17:59;;;;;;;50.88;28.10;;;;;;;2.83;48.97;101407.38;1827608;78;25546;-73
2022/03/24 01:20:30;;;;;;;53.97;28.60;;;;;;;2.76;48.58;101403.50;1827774;78;27175;-73
2022/03/24 01:22:59;;;;;;;47.55;26.15;;;;;;;2.65;48.80;101402.95;1794860;80;25549;-73
2022/03/24 01:25:27;;;;;;;46.60;26.37;;;;;;;2.55;48.94;101397.62;1827526;78;25609;-73
2022/03/24 01:27:53;;;;;;;52.17;28.07;;;;;;;2.46;49.27;101394.99;1806879;79;26000;-73
2022/03/24 01:30:20;;;;;;;48.08;27.13;;;;;;;2.37;49.50;101399.03;1827502;78;25590;-74
2022/03/24 01:32:47;;;;;;;52.13;27.07;;;;;;;2.28;49.66;101395.04;1827509;78;27456;-74
2022/03/24 01:35:15;;;;;;;49.75;25.10;;;;;;;2.21;49.88;101397.80;1827381;78;25700;-74
2022/03/24 01:37:42;;;;;;;50.00;26.93;;;;;;;2.11;50.06;101398.86;1827484;78;25431;-74
2022/03/24 01:40:12;;;;;;;51.48;26.55;;;;;;;2.03;50.08;101406.66;1794894;80;25645;-73
2022/03/24 01:42:40;;;;;;;50.10;27.15;;;;;;;1.97;50.21;101406.22;1806811;79;25403;-73
2022/03/24 01:45:09;;;;;;;48.17;26.80;;;;;;;1.89;50.53;101404.68;1795052;80;28020;-73
2022/03/24 01:47:37;;;;;;;43.05;24.15;;;;;;;1.80;50.58;101400.14;1827674;78;30947;-73
2022/03/24 01:50:06;;;;;;;49.80;27.55;;;;;;;1.71;50.85;101394.02;1827476;77;25540;-73
2022/03/24 01:52:33;;;;;;;52.55;27.00;;;;;;;1.64;50.94;101400.75;1795061;80;26142;-73
2022/03/24 01:55:00;;;;;;;44.70;25.50;;;;;;;1.59;51.25;101397.94;1824654;78;25396;-73
2022/03/24 01:57:29;;;;;;;48.08;27.17;;;;;;;1.53;51.40;101398.28;1809909;79;27488;-73
2022/03/24 01:59:56;;;;;;;49.95;28.02;;;;;;;1.45;51.58;101403.93;1789099;80;25803;-73
2022/03/24 02:02:23;;;;;;;57.15;28.98;;;;;;;1.36;51.60;101406.56;1821364;78;25464;-74
2022/03/24 02:04:50;;;;;;;51.13;28.67;;;;;;;1.29;51.94;101409.30;1809841;79;25618;-73
2022/03/24 02:07:16;;;;;;;47.83;26.45;;;;;;;1.21;51.69;101406.91;1789038;80;25567;-73
2022/03/24 02:09:43;;;;;;;56.73;28.23;;;;;;;1.16;51.97;101406.75;1821591;78;28191;-74
2022/03/24 02:12:14;;;;;;;45.83;26.55;;;;;;;1.10;52.39;101400.45;1810170;79;25597;-73
2022/03/24 02:14:42;;;;;;;51.02;27.13;;;;;;;1.06;52.89;101404.59;1809972;79;25570;-73
2022/03/24 02:17:10;;;;;;;49.38;28.02;;;;;;;1.01;52.96;101404.44;1809825;79;25456;-73
2022/03/24 02:19:36;;;;;;;48.55;27.13;;;;;;;0.95;53.08;101404.77;1809901;79;25625;-73
2022/03/24 02:22:16;;;;;;;50.40;26.87;;;;;;;0.90;53.21;101407.27;1789020;80;27657;-73
2022/03/24 02:24:42;;;;;;;;;;;;;;;0.83;53.40;101401.19;1823925;78;25448;-74
2022/03/24 02:27:10;;;;;;;46.83;24.20;;;;;;;0.78;53.70;101407.67;1803641;79;25602;-73
2022/03/24 02:29:36;;;;;;;53.95;26.35;;;;;;;0.71;53.59;101407.72;1789008;80;25544;-74
2022/03/24 02:32:08;;;;;;;50.33;27.32;;;;;;;0.68;53.38;101400.16;1821398;78;25598;-74
2022/03/24 02:34:38;;;;;;;49.08;27.10;;;;;;;0.67;53.00;101404.67;1803534;79;28034;-74
2022/03/24 02:37:14;;;;;;;49.77;27.32;;;;;;;0.64;53.63;101409.63;1788953;80;25830;-74
2022/03/24 02:39:44;;;;;;;47.43;27.00;;;;;;;0.59;53.97;101406.78;1803597;79;25425;-74
2022/03/24 02:42:14;;;;;;;50.00;26.45;;;;;;;0.54;53.62;101407.42;1789105;80;26219;-71
2022/03/24 02:44:51;;;;;;;44.95;26.20;;;;;;;0.53;53.58;101410.61;1821352;78;25551;-73
2022/03/24 02:47:18;;;;;;;57.35;28.42;;;;;;;0.53;54.23;101413.80;1809975;79;27523;-73
2022/03/24 02:49:47;;;;;;;50.40;28.52;;;;;;;0.47;54.47;101409.31;1788905;80;25380;-74
2022/03/24 02:52:14;;;;;;;54.35;28.70;;;;;;;0.42;54.50;101409.14;1821481;78;32262;-73
2022/03/24 02:54:42;;;;;;;50.08;26.97;;;;;;;0.37;54.85;101412.44;1809722;79;26012;-74
2022/03/24 02:57:10;;;;;;;53.95;27.30;;;;;;;0.34;55.08;101418.18;1789062;80;25383;-73
2022/03/24 02:59:37;;;;;;;55.98;27.77;;;;;;;0.29;55.18;101415.34;1821418;78;27448;-73
2022/03/24 03:02:16;;;;;;;52.80;29.42;;;;;;;0.23;55.21;101415.69;1809732;79;25472;-73
2022/03/24 03:04:40;;;;;;;52.23;28.05;;;;;;;0.20;54.83;101413.97;1819476;78;25405;-73
2022/03/24 03:07:06;;;;;;;51.35;26.33;;;;;;;0.16;54.22;101410.39;1809811;79;25624;-73
2022/03/24 03:09:35;;;;;;;52.40;25.77;;;;;;;0.16;55.03;101416.23;1789021;80;25381;-73
2022/03/24 03:12:02;;;;;;;52.95;26.37;;;;;;;0.13;55.77;101412.14;1821460;78;27433;-73
2022/03/24 03:14:32;;;;;;;55.10;26.40;;;;;;;0.10;55.43;101415.25;1803518;79;25642;-73
2022/03/24 03:17:00;;;;;;;47.23;24.92;;;;;;;0.06;55.64;101417.20;1789096;80;32805;-73
2022/03/24 03:19:28;;;;;;;54.80;26.75;;;;;;;0.01;56.07;101416.50;1821309;78;25608;-73
2022/03/24 03:21:55;;;;;;;47.05;26.40;;;;;;;-0.02;56.15;101422.23;1803652;79;25370;-74
2022/03/24 03:24:22;;;;;;;51.70;24.72;;;;;;;-0.07;55.31;101416.73;1821269;78;27449;-73
2022/03/24 03:26:52;;;;;;;55.65;25.15;;;;;;;-0.13;56.20;101416.26;1809842;79;25572;-73
2022/03/24 03:29:22;;;;;;;54.98;26.05;;;;;;;-0.17;56.42;101421.19;1789048;80;25464;-73
2022/03/24 03:31:48;;;;;;;53.70;26.07;;;;;;;-0.20;55.75;101425.06;1821385;78;25529;-73
2022/03/24 03:34:15;;;;;;;50.63;25.97;;;;;;;-0.19;55.86;101431.19;1810149;79;25534;-73
2022/03/24 03:36:42;;;;;;;56.18;27.22;;;;;;;-0.23;56.12;101423.34;1809981;79;27490;-73
2022/03/24 03:39:09;;;;;;;50.92;25.68;;;;;;;-0.23;55.73;101432.12;1809961;79;25683;-73
2022/03/24 03:41:37;;;;;;;54.53;25.92;;;;;;;-0.24;56.67;101436.31;1809996;79;25405;-73
2022/03/24 03:44:05;;;;;;;50.38;26.77;;;;;;;-0.26;55.95;101434.39;1789102;80;25472;-73
2022/03/24 03:46:32;;;;;;;49.05;26.17;;;;;;;-0.27;55.92;101433.58;1821541;78;25436;-73
2022/03/24 03:48:59;;;;;;;51.25;24.72;;;;;;;-0.28;56.75;101435.11;1810001;79;27584;-73
2022/03/24 03:51:27;;;;;;;50.08;26.23;;;;;;;-0.30;56.48;101438.50;1809884;79;25864;-73
2022/03/24 03:53:55;;;;;;;51.30;27.22;;;;;;;-0.32;56.17;101433.39;1809924;79;25452;-73
2022/03/24 03:56:21;;;;;;;58.20;26.93;;;;;;;-0.35;56.18;101439.11;1822998;78;25617;-73
2022/03/24 03:58:48;;;;;;;53.33;26.10;;;;;;;-0.38;56.64;101442.19;1795046;80;25529;-73
2022/03/24 04:01:14;;;;;;;53.40;27.00;;;;;;;-0.44;57.13;101439.05;1827563;78;27555;-73
2022/03/24 04:03:42;;;;;;;51.95;26.97;;;;;;;-0.47;57.25;101441.59;1827410;78;25585;-74
2022/03/24 04:06:12;;;;;;;52.62;29.32;;;;;;;-0.49;57.27;101442.84;1794993;80;25454;-74
2022/03/24 04:08:42;;;;;;;49.20;25.60;;;;;;;-0.54;57.59;101441.31;1806808;79;25485;-74
2022/03/24 04:11:10;;;;;;;55.65;27.58;;;;;;;-0.57;57.47;101443.34;1795094;80;25568;-74
2022/03/24 04:13:39;;;;;;;61.95;28.38;;;;;;;-0.59;57.66;101440.59;1827584;78;27561;-74
2022/03/24 04:16:11;;;;;;;61.28;29.15;;;;;;;-0.64;57.94;101439.06;1827785;78;25415;-74
2022/03/24 04:18:35;;;;;;;55.95;27.07;;;;;;;-0.63;57.90;101446.00;1827229;78;25398;-74
2022/03/24 04:21:02;;;;;;;53.28;26.65;;;;;;;-0.65;58.20;101444.88;1806957;79;25533;-74
2022/03/24 04:23:28;;;;;;;63.63;28.30;;;;;;;-0.66;58.51;101449.90;1795130;79;25392;-73
2022/03/24 04:25:54;;;;;;;59.23;29.72;;;;;;;-0.68;58.38;101445.80;1827630;78;28288;-73
2022/03/24 04:28:21;;;;;;;53.13;27.42;;;;;;;-0.68;58.60;101446.64;1827443;78;25380;-74
2022/03/24 04:30:47;;;;;;;61.95;28.52;;;;;;;-0.70;58.90;101446.52;1794987;80;25575;-74
2022/03/24 04:33:13;;;;;;;54.53;27.77;;;;;;;-0.70;59.01;101455.30;1827520;78;26067;-74
2022/03/24 04:35:40;;;;;;;56.85;26.82;;;;;;;-0.71;58.87;101453.69;1827562;78;25531;-73
2022/03/24 04:38:08;;;;;;;51.40;25.82;;;;;;;-0.71;59.17;101448.89;1794978;80;27177;-73
2022/03/24 04:40:35;;;;;;;63.35;29.57;;;;;;;-0.77;59.48;101444.70;1827421;78;25526;-73
2022/03/24 04:43:04;;;;;;;61.50;28.73;;;;;;;-0.74;59.66;101454.09;1827481;78;25545;-73
2022/03/24 04:45:32;;;;;;;65.40;27.90;;;;;;;-0.76;59.64;101455.62;1794868;80;25576;-73
2022/03/24 04:47:58;;;;;;;62.40;30.32;;;;;;;-0.76;59.78;101451.63;1806789;79;25557;-73
2022/03/24 04:50:25;;;;;;;58.35;30.35;;;;;;;-0.74;59.99;101447.97;1795051;80;27426;-73
2022/03/24 04:52:52;;;;;;;54.67;26.82;;;;;;;-0.74;60.00;101447.97;1827397;78;25447;-73
2022/03/24 04:55:19;;;;;;;58.83;25.92;;;;;;;-0.73;59.94;101450.91;1827403;78;25381;-73
2022/03/24 04:57:45;;;;;;;54.70;27.82;;;;;;;-0.71;60.19;101446.23;1794944;80;25532;-73
2022/03/24 05:00:16;;;;;;;61.88;28.60;;;;;;;-0.68;60.25;101445.80;1827521;78;25460;-73
2022/03/24 05:02:42;;;;;;;75.57;32.30;;;;;;;-0.65;60.45;101451.52;1806817;79;27461;-73
2022/03/24 05:05:10;;;;;;;54.45;29.40;;;;;;;-0.63;60.52;101449.98;1766074;80;25624;-72
2022/03/24 05:07:37;;;;;;;62.23;28.25;;;;;;;-0.62;60.69;101452.44;1806869;79;25578;-72
2022/03/24 05:10:06;;;;;;;87.30;40.17;;;;;;;-0.64;60.77;101446.52;1794909;80;26102;-72
2022/03/24 05:12:32;;;;;;;94.85;43.30;;;;;;;-0.54;60.48;101455.41;1827530;78;25632;-73
2022/03/24 05:14:59;;;;;;;71.47;30.97;;;;;;;-0.51;60.84;101457.66;1827520;78;27462;-73
2022/03/24 05:17:26;;;;;;;62.53;27.45;;;;;;;-0.49;60.79;101455.61;1795012;80;25474;-73
2022/03/24 05:19:52;;;;;;;57.10;31.97;;;;;;;-0.43;60.86;101457.94;1827765;78;25589;-73
2022/03/24 05:22:19;;;;;;;107.27;96.72;;;;;;;-0.36;60.97;101456.08;1827451;78;25522;-72
2022/03/24 05:24:45;;;;;;;72.45;57.70;;;;;;;-0.28;61.10;101457.72;1794939;80;25460;-73
2022/03/24 05:27:12;;;;;;;108.07;96.90;;;;;;;-0.21;61.40;101457.98;1827519;78;27550;-73
2022/03/24 05:29:38;;;;;;;106.75;96.37;;;;;;;-0.09;61.31;101460.02;1827351;78;25686;-73
2022/03/24 05:32:07;;;;;;;108.27;97.30;;;;;;;0.02;61.45;101459.87;1794940;80;25585;-72
2022/03/24 05:34:33;;;;;;;106.80;95.57;;;;;;;0.14;61.47;101464.86;1806510;79;25690;-73
2022/03/24 05:36:59;;;;;;;106.87;96.15;;;;;;;0.28;61.55;101459.78;1794050;80;25593;-73
2022/03/24 05:39:26;;;;;;;107.12;96.42;;;;;;;0.44;61.73;101461.64;1827453;78;28214;-73
2022/03/24 05:41:52;;;;;;;109.57;98.75;;;;;;;0.60;61.75;101468.34;1827224;78;25383;-72
2022/03/24 05:44:18;;;;;;;107.40;96.87;;;;;;;0.77;61.76;101464.63;1794996;80;25593;-72
2022/03/24 05:46:46;;;;;;;107.47;97.02;;;;;;;0.93;61.69;101466.26;1827573;78;25655;-72
2022/03/24 05:49:17;;;;;;;108.10;97.60;;;;;;;1.13;61.63;101468.50;1827523;78;25416;-72
2022/03/24 05:51:45;;;;;;;109.55;98.07;;;;;;;1.33;61.59;101465.16;1794847;80;28935;-72
2022/03/24 05:54:14;;;;;;;110.92;99.72;;;;;;;1.56;61.51;101475.71;1806660;79;25700;-73
2022/03/24 05:56:43;;;;;;;108.80;97.92;;;;;;;1.77;61.36;101473.98;1793520;78;25469;-72
2022/03/24 05:59:10;;;;;;;111.42;99.60;;;;;;;2.00;61.24;101470.63;1809647;79;25562;-74
2022/03/24 06:01:39;;;;;;;109.27;97.37;;;;;;;2.23;61.09;101469.12;1792533;80;25609;-73
2022/03/24 06:04:07;;;;;;;112.50;101.33;;;;;;;2.48;60.62;101466.34;1810245;79;27525;-73
2022/03/24 06:06:36;;;;;;;109.30;98.00;;;;;;;2.71;60.45;101468.84;1758557;80;25497;-73
2022/03/24 06:09:06;;;;;;;110.08;98.75;;;;;;;2.98;60.01;101470.06;1810181;79;25549;-72
2022/03/24 06:11:35;;;;;;;77.62;69.75;;;;;;;3.26;59.79;101465.91;1792623;79;26170;-71
2022/03/24 06:14:13;;;;;;;109.90;99.25;;;;;;;3.53;59.53;101462.80;1810099;79;25405;-73
2022/03/24 06:16:43;;;;;;;109.70;99.05;;;;;;;3.83;59.24;101469.86;1786329;78;27511;-73
2022/03/24 06:19:10;;;;;;;110.70;99.32;;;;;;;4.18;59.05;101468.98;1789287;78;25515;-72
2022/03/24 06:21:38;;;;;;;109.35;98.37;;;;;;;4.51;58.40;101472.83;1777678;80;25473;-73
2022/03/24 06:24:07;;;;;;;112.35;100.02;;;;;;;4.80;57.46;101472.28;1786465;80;26234;-73
2022/03/24 06:26:34;;;;;;;108.63;97.80;;;;;;;5.05;56.51;101480.77;1786558;80;25757;-73
2022/03/24 06:29:01;;;;;;;110.00;100.05;;;;;;;5.33;56.60;101481.77;1788274;78;28141;-73
2022/03/24 06:31:28;;;;;;;89.35;79.40;;;;;;;5.71;55.94;101477.48;1812432;78;26376;-76
2022/03/24 06:33:54;;;;;;;54.60;27.95;;;;;;;6.01;54.98;101482.20;1818786;78;25431;-73
2022/03/24 06:36:21;;;;;;;55.73;29.07;;;;;;;6.29;54.57;101484.70;1792081;80;25594;-73
2022/03/24 06:38:48;;;;;;;53.15;28.87;;;;;;;6.63;54.07;101479.70;1809660;79;25457;-73
2022/03/24 06:41:14;;;;;;;51.23;27.17;;;;;;;7.01;53.65;101478.70;1792096;80;28043;-73
2022/03/24 06:43:42;;;;;;;51.92;27.45;;;;;;;7.33;52.94;101482.48;1809510;79;25574;-73
2022/03/24 06:46:09;;;;;;;52.30;29.92;;;;;;;7.72;52.63;101475.47;1763134;80;25407;-73
2022/03/24 06:48:36;;;;;;;95.53;86.30;;;;;;;8.14;51.46;101486.19;1809565;79;25555;-73
2022/03/24 06:51:04;;;;;;;109.57;99.42;;;;;;;8.45;50.37;101486.88;1792146;79;25598;-73
2022/03/24 06:53:32;;;;;;;54.00;29.90;;;;;;;8.82;50.29;101483.98;1809631;79;27510;-74
2022/03/24 06:55:59;;;;;;;55.63;30.75;;;;;;;9.16;49.38;101481.57;1791427;79;25405;-74
2022/03/24 06:58:26;;;;;;;51.42;30.30;;;;;;;9.54;48.61;101490.72;1809976;79;25681;-74
2022/03/24 07:00:52;;;;;;;57.85;32.55;;;;;;;9.91;47.89;101493.07;1821335;78;25531;-75
2022/03/24 07:03:18;;;;;;;52.15;28.17;;;;;;;10.27;47.25;101492.13;1809958;79;25628;-75
2022/03/24 07:05:45;;;;;;;51.33;28.47;;;;;;;10.61;46.52;101496.31;1778179;79;27489;-74
2022/03/24 07:08:11;;;;;;;45.60;27.65;;;;;;;10.86;45.18;101494.52;1810015;79;25536;-73
2022/03/24 07:10:38;;;;;;;50.52;28.98;;;;;;;11.16;45.23;101495.39;1808658;78;25393;-72
2022/03/24 07:13:04;;;;;;;40.98;25.88;;;;;;;11.59;44.45;101497.72;1809692;78;25606;-73
2022/03/24 07:15:31;;;;;;;43.48;26.60;;;;;;;12.02;44.08;101500.27;1809782;79;25544;-72
2022/03/24 07:17:57;;;;;;;43.38;26.73;;;;;;;12.41;43.32;101496.00;1809542;79;28043;-72
2022/03/24 07:20:24;;;;;;;40.15;26.02;;;;;;;12.74;42.53;101502.06;1820963;78;25423;-72
2022/03/24 07:22:50;;;;;;;43.23;27.85;;;;;;;13.16;42.06;101494.35;1803474;79;25632;-73
2022/03/24 07:25:16;;;;;;;44.35;26.87;;;;;;;13.56;41.31;101492.61;1788483;80;25576;-73
2022/03/24 07:27:43;;;;;;;38.83;24.80;;;;;;;13.92;40.47;101491.36;1809755;78;25605;-73
2022/03/24 07:30:11;;;;;;;42.62;25.08;;;;;;;14.23;40.05;101495.38;1809618;79;28030;-73
2022/03/24 07:32:38;;;;;;;38.55;23.42;;;;;;;14.68;39.52;101493.61;1809404;79;25907;-73
2022/03/24 07:35:07;;;;;;;61.00;35.65;;;;;;;15.04;38.58;101496.05;1809680;79;25696;-72
2022/03/24 07:37:34;;;;;;;;;;;;;;;15.36;38.31;101490.06;1812396;79;25581;-72
2022/03/24 07:40:01;;;;;;;37.98;26.23;;;;;;;15.70;37.02;101500.36;1809517;78;25687;-73
2022/03/24 07:42:31;;;;;;;30.50;19.90;;;;;;;15.85;36.21;101497.79;1788831;80;27460;-73
2022/03/24 07:44:58;;;;;;;29.30;19.25;;;;;;;15.96;35.83;101496.96;1809626;79;25455;-72
2022/03/24 07:47:24;;;;;;;29.98;18.15;;;;;;;16.25;35.35;101503.22;1809402;79;25599;-73
2022/03/24 07:49:50;;;;;;;40.50;36.25;;;;;;;16.42;34.54;101500.52;1788806;79;25475;-72
2022/03/24 07:52:17;;;;;;;22.42;16.87;;;;;;;16.56;34.12;101499.00;1809721;79;25604;-72
2022/03/24 07:55:01;;;;;;;23.85;19.73;;;;;;;16.76;33.73;101498.93;1788599;80;27585;-72
2022/03/24 07:57:32;;;;;;;28.95;17.15;;;;;;;17.01;33.15;101496.55;1809299;79;25911;-71
2022/03/24 08:00:00;;;;;;;28.38;18.67;;;;;;;17.67;32.68;101486.66;1809730;79;25597;-72
2022/03/24 08:02:26;;;;;;;29.15;16.80;;;;;;;18.46;32.30;101492.52;1788527;80;25646;-72
2022/03/24 08:04:53;;;;;;;23.22;16.20;;;;;;;19.13;31.33;101490.45;1809777;79;25741;-72
2022/03/24 08:07:21;;;;;;;24.67;16.40;;;;;;;19.71;30.26;101478.08;1809571;78;27449;-71
2022/03/24 08:09:49;;;;;;;24.57;15.43;;;;;;;20.04;28.92;101484.05;1788533;80;25641;-72
2022/03/24 08:12:15;;;;;;;19.82;12.78;;;;;;;20.18;28.48;101486.47;1809563;79;25595;-71
2022/03/24 08:14:42;;;;;;;18.30;12.88;;;;;;;20.64;28.24;101482.36;1809727;78;25572;-71
2022/03/24 08:17:10;;;;;;;22.93;19.45;;;;;;;20.94;27.17;101479.84;1809072;79;25714;-71
2022/03/24 08:19:36;;;;;;;65.32;60.28;;;;;;;21.19;26.89;101482.69;1809698;79;27917;-72
2022/03/24 08:22:03;;;;;;;53.23;49.10;;;;;;;21.56;26.30;101483.86;1821059;78;27112;-72
2022/03/24 08:24:29;;;;;;;18.92;13.65;;;;;;;21.44;26.05;101483.34;1803234;79;25727;-73
2022/03/24 08:26:56;;;;;;;20.50;13.38;;;;;;;21.62;26.20;101485.76;1788864;80;26020;-72
2022/03/24 08:29:22;;;;;;;18.27;12.55;;;;;;;21.70;26.41;101482.62;1803433;79;25404;-71
2022/03/24 08:31:49;;;;;;;25.32;12.28;;;;;;;21.86;26.22;101485.34;1788554;80;27982;-72
2022/03/24 08:34:16;;;;;;;20.08;14.80;;;;;;;21.98;25.09;101478.34;1803318;79;25677;-72
2022/03/24 08:36:43;;;;;;;20.95;11.63;;;;;;;21.72;24.64;101479.72;1788880;80;25601;-72
2022/03/24 08:39:09;;;;;;;27.58;12.60;;;;;;;21.73;24.83;101487.41;1803201;79;25682;-72
2022/03/24 08:41:36;;;;;;;19.92;13.03;;;;;;;21.94;24.67;101481.61;1788740;80;25704;-72
2022/03/24 08:44:03;;;;;;;20.52;13.48;;;;;;;22.08;24.55;101477.00;1821225;78;27566;-72
2022/03/24 08:46:30;;;;;;;20.20;12.95;;;;;;;22.26;24.31;101481.55;1809170;79;25870;-72
2022/03/24 08:48:56;;;;;;;18.70;12.70;;;;;;;22.50;23.95;101469.48;1809726;79;26285;-71
2022/03/24 08:51:23;;;;;;;21.27;12.45;;;;;;;22.50;23.57;101475.00;1809593;79;25651;-72
2022/03/24 08:53:50;;;;;;;19.12;13.85;;;;;;;22.51;23.47;101478.77;1821130;78;25542;-72
2022/03/24 08:56:16;;;;;;;20.25;13.32;;;;;;;22.70;23.56;101482.11;1809628;79;27283;-71
2022/03/24 08:58:43;;;;;;;20.32;13.43;;;;;;;22.90;23.37;101480.70;1809692;79;25671;-71
2022/03/24 09:01:10;;;;;;;21.00;13.43;;;;;;;23.31;23.16;101474.22;1788535;79;25542;-72
2022/03/24 09:03:37;;;;;;;20.45;13.05;;;;;;;23.37;22.43;101476.08;1821141;78;25545;-72
2022/03/24 09:06:04;;;;;;;21.70;13.83;;;;;;;23.38;22.33;101472.95;1809664;79;25707;-72
2022/03/24 09:08:31;;;;;;;17.70;13.00;;;;;;;23.18;21.52;101471.41;1758007;80;27521;-72
2022/03/24 09:10:58;;;;;;;20.17;12.15;;;;;;;22.81;21.78;101471.28;1803370;79;25770;-72
2022/03/24 09:13:24;;;;;;;15.88;11.57;;;;;;;22.71;21.81;101471.87;1788819;80;25553;-72
2022/03/24 09:15:51;;;;;;;18.32;11.22;;;;;;;22.78;22.20;101475.34;1809416;78;26314;-72
2022/03/24 09:18:18;;;;;;;17.62;10.25;;;;;;;23.01;21.81;101478.95;1809747;79;25689;-73
2022/03/24 09:20:44;;;;;;;15.43;11.10;;;;;;;23.22;21.96;101471.67;1788729;80;28012;-72
2022/03/24 09:23:11;;;;;;;16.93;11.93;;;;;;;23.41;21.67;101471.41;1809170;79;25600;-71
2022/03/24 09:25:38;;;;;;;22.45;16.57;;;;;;;23.41;21.41;101470.84;1809499;79;25674;-71
2022/03/24 09:28:06;;;;;;;15.75;11.73;;;;;;;23.54;21.40;101467.88;1778380;77;25692;-72
2022/03/24 09:30:35;;;;;;;18.50;11.23;;;;;;;23.67;21.35;101471.45;1777600;80;25416;-71
2022/03/24 09:33:03;;;;;;;;;;;;;;;23.76;20.39;101467.64;1780310;80;27419;-71
2022/03/24 09:35:29;;;;;;;15.95;10.82;;;;;;;23.81;20.94;101464.56;1777609;79;25762;-73
2022/03/24 09:37:56;;;;;;;15.43;11.10;;;;;;;24.14;21.05;101458.94;1777524;80;25660;-72
2022/03/24 09:40:22;;;;;;;15.48;10.93;;;;;;;24.29;20.65;101459.94;1777584;80;26438;-71
2022/03/24 09:42:49;;;;;;;17.15;11.08;;;;;;;24.28;20.65;101456.95;1777752;79;25562;-71
2022/03/24 09:45:16;;;;;;;18.87;11.30;;;;;;;24.57;20.56;101450.65;1777358;80;28039;-71
2022/03/24 09:47:43;;;;;;;17.42;11.03;;;;;;;24.96;20.50;101455.81;1777570;80;25977;-71
2022/03/24 09:50:12;;;;;;;16.62;10.45;;;;;;;25.27;19.97;101447.44;1777631;80;25576;-72
2022/03/24 09:52:39;;;;;;;17.07;10.72;;;;;;;25.23;19.19;101446.56;1777402;80;25786;-71
2022/03/24 09:55:08;;;;;;;15.45;10.03;;;;;;;25.04;19.18;101448.37;1777727;80;25631;-72
2022/03/24 09:57:38;;;;;;;16.85;10.18;;;;;;;25.44;19.36;101444.62;1777644;80;28151;-72
2022/03/24 10:00:07;;;;;;;15.28;9.80;;;;;;;26.23;19.34;101445.92;1746766;80;25649;-72
2022/03/24 10:02:34;;;;;;;14.65;9.60;;;;;;;26.87;18.32;101441.82;1777658;80;25599;-72
2022/03/24 10:05:01;;;;;;;17.55;10.10;;;;;;;27.52;18.13;101456.56;1777642;80;25600;-72
2022/03/24 10:07:48;;;;;;;13.00;9.15;;;;;;;27.72;17.35;101450.00;1777436;80;25726;-71
2022/03/24 10:10:27;;;;;;;10.85;9.20;;;;;;;28.05;17.48;101450.73;1740792;82;27685;-72
2022/03/24 10:12:54;;;;;;;11.95;9.25;;;;;;;28.34;16.86;101452.03;1800220;79;25472;-73
2022/03/24 10:15:20;;;;;;;13.53;9.00;;;;;;;28.99;16.82;101447.53;1799961;79;25782;-73
2022/03/24 10:17:58;;;;;;;12.03;9.15;;;;;;;29.40;16.57;101446.84;1800309;79;25695;-73
2022/03/24 10:20:30;;;;;;;11.90;8.68;;;;;;;29.38;16.07;101434.70;1800185;79;25662;-71
2022/03/24 10:23:04;;;;;;;11.00;7.72;;;;;;;29.49;15.87;101432.42;1800151;79;28092;-73
2022/03/24 10:25:35;;;;;;;11.10;7.50;;;;;;;29.73;15.78;101431.98;1800181;79;25681;-72
2022/03/24 10:28:11;;;;;;;26.97;24.45;;;;;;;30.04;15.40;101437.67;1800314;79;26307;-72
2022/03/24 10:30:49;;;;;;;12.03;8.28;;;;;;;30.07;15.00;101430.66;1751334;81;25809;-72
2022/03/24 10:33:30;;;;;;;15.15;7.37;;;;;;;30.20;14.91;101427.31;1799592;79;25655;-72
2022/03/24 10:36:11;;;;;;;12.47;7.05;;;;;;;30.38;14.92;101425.70;1799981;79;27472;-72
2022/03/24 10:38:50;;;;;;;11.78;6.40;;;;;;;30.47;14.43;101454.69;1800331;79;25751;-72
2022/03/24 10:41:24;;;;;;;12.88;8.45;;;;;;;29.88;14.43;101425.69;1800167;79;25656;-73
2022/03/24 10:43:55;;;;;;;17.15;6.83;;;;;;;28.83;15.14;101414.63;1798416;79;26015;-71
2022/03/24 10:46:25;;;;;;;11.35;6.83;;;;;;;28.09;16.11;101414.58;1805267;77;25683;-71
2022/03/24 10:48:53;;;;;;;12.75;6.70;;;;;;;26.96;16.18;101423.39;1846489;77;27404;-71
2022/03/24 10:51:31;;;;;;;10.40;6.85;;;;;;;25.96;17.19;101425.98;1846081;76;25757;-70
2022/03/24 10:54:41;;;;;;;15.65;7.17;;;;;;;25.23;17.36;101413.34;1846589;77;25699;-70
2022/03/24 10:57:18;;;;;;;12.35;7.17;;;;;;;24.79;17.88;101410.19;1845049;76;25382;-71
2022/03/24 10:59:58;;;;;;;16.10;7.47;;;;;;;24.21;18.53;101410.09;1846115;77;25584;-71
2022/03/24 11:02:21;;;;;;;14.40;7.20;;;;;;;24.07;18.42;101405.75;1813624;76;27305;-71
2022/03/24 11:04:47;;;;;;;10.00;7.85;;;;;;;24.18;18.79;101402.55;1846062;77;25669;-71
2022/03/24 11:07:27;;;;;;;13.95;7.30;;;;;;;24.39;18.46;101396.47;1813757;77;25712;-70
2022/03/24 11:09:54;;;;;;;11.60;7.47;;;;;;;24.12;18.61;101394.36;1846055;77;25574;-68
2022/03/24 11:12:33;;;;;;;15.32;7.95;;;;;;;23.77;18.43;101392.70;1846077;77;25452;-69
2022/03/24 11:15:07;;;;;;;11.75;8.53;;;;;;;23.49;18.49;101391.08;1871467;75;27332;-70
2022/03/24 11:17:37;;;;;;;15.08;7.53;;;;;;;23.22;18.67;101390.26;1891047;75;25691;-69
2022/03/24 11:20:24;;;;;;;11.35;7.70;;;;;;;23.12;18.95;101384.80;1890716;75;25648;-70